createdAt,value
2023-04-18T00:00:21.820Z,14.60
2023-04-18T00:05:47.292Z,14.90
2023-04-18T00:10:50.217Z,14.20
2023-04-18T00:15:54.219Z,14.50
2023-04-18T00:20:56.991Z,13.40
2023-04-18T00:26:00.012Z,15.70
2023-04-18T00:31:03.546Z,11.90
2023-04-18T00:36:06.627Z,13.10
2023-04-18T00:41:09.416Z,16.70
2023-04-18T00:46:12.175Z,16.50
2023-04-18T00:51:15.692Z,11.60
2023-04-18T00:56:19.340Z,11.80
2023-04-18T01:01:22.237Z,11.50
2023-04-18T01:06:27.528Z,15.00
2023-04-18T01:11:30.476Z,15.30
2023-04-18T01:16:34.658Z,15.00
2023-04-18T01:22:00.548Z,15.10
2023-04-18T01:27:03.485Z,13.10
2023-04-18T01:32:07.067Z,11.50
2023-04-18T01:37:09.781Z,13.00
2023-04-18T01:42:12.526Z,13.30
2023-04-18T01:47:15.251Z,12.50
2023-04-18T01:52:18.271Z,13.40
2023-04-18T01:57:21.114Z,15.50
2023-04-18T02:02:24.021Z,12.30
2023-04-18T02:07:26.997Z,14.00
2023-04-18T02:12:29.703Z,13.60
2023-04-18T02:17:32.425Z,12.80
2023-04-18T02:22:38.234Z,12.60
2023-04-18T02:27:41.262Z,11.90
2023-04-18T02:32:44.080Z,10.20
2023-04-18T02:37:46.908Z,12.70
2023-04-18T02:42:49.609Z,10.80
2023-04-18T02:47:55.856Z,13.30
2023-04-18T02:53:00.157Z,12.00
2023-04-18T02:58:03.330Z,13.00
2023-04-18T03:03:06.227Z,12.30
2023-04-18T03:08:09.268Z,13.20
2023-04-18T03:13:12.154Z,12.90
2023-04-18T03:18:14.915Z,13.80
2023-04-18T03:23:17.661Z,14.10
2023-04-18T03:28:20.473Z,11.50
2023-04-18T03:33:23.957Z,16.20
2023-04-18T03:38:26.782Z,13.40
2023-04-18T03:43:29.528Z,13.40
2023-04-18T03:48:35.856Z,14.70
2023-04-18T03:53:38.653Z,13.20
2023-04-18T03:58:41.372Z,13.30
2023-04-18T04:03:44.278Z,14.10
2023-04-18T04:08:47.124Z,15.00
2023-04-18T04:13:49.955Z,12.20
2023-04-18T04:18:52.753Z,12.30
2023-04-18T04:23:55.479Z,12.70
2023-04-18T04:28:58.389Z,12.10
2023-04-18T04:34:01.784Z,11.80
2023-04-18T04:39:05.378Z,13.00
2023-04-18T04:44:10.362Z,12.30
2023-04-18T04:49:13.109Z,17.50
2023-04-18T04:54:16.302Z,16.80
2023-04-18T04:59:19.618Z,14.20
2023-04-18T05:04:22.495Z,16.50
2023-04-18T05:09:26.180Z,15.50
2023-04-18T05:14:28.893Z,17.20
2023-04-18T05:19:31.590Z,17.60
2023-04-18T05:24:34.258Z,15.60
2023-04-18T05:29:36.920Z,16.20
2023-04-18T05:34:39.646Z,17.30
2023-04-18T05:39:42.484Z,15.70
2023-04-18T05:44:45.162Z,16.00
2023-04-18T05:49:47.868Z,14.70
2023-04-18T05:54:51.181Z,16.00
2023-04-18T05:59:54.113Z,16.70
2023-04-18T06:04:57.564Z,15.20
2023-04-18T06:10:00.545Z,17.10
2023-04-18T06:15:05.278Z,15.80
2023-04-18T06:20:10.056Z,18.10
2023-04-18T06:25:12.871Z,19.70
2023-04-18T06:30:15.799Z,15.60
2023-04-18T06:35:18.752Z,13.30
2023-04-18T06:40:21.538Z,14.40
2023-04-18T06:45:24.616Z,18.10
2023-04-18T06:50:30.664Z,13.80
2023-04-18T06:55:33.943Z,12.70
2023-04-18T07:00:42.079Z,13.90
2023-04-18T07:05:50.967Z,12.40
2023-04-18T07:10:53.840Z,13.50
2023-04-18T07:15:56.835Z,10.90
2023-04-18T07:20:59.534Z,12.30
2023-04-18T07:26:03.178Z,11.80
2023-04-18T07:31:09.112Z,12.90
2023-04-18T07:36:12.317Z,15.70
2023-04-18T07:41:15.717Z,10.80
2023-04-18T07:46:19.011Z,11.60
2023-04-18T07:51:22.203Z,11.70
2023-04-18T07:56:25.976Z,10.30
2023-04-18T08:01:28.737Z,9.20
2023-04-18T08:06:31.535Z,15.50
2023-04-18T08:11:35.186Z,11.60
2023-04-18T08:16:39.536Z,11.60
2023-04-18T08:21:42.217Z,10.20
2023-04-18T08:26:45.114Z,9.50
2023-04-18T08:31:50.525Z,7.20
2023-04-18T08:37:04.674Z,12.40
2023-04-18T08:42:24.531Z,7.30
2023-04-18T08:47:31.402Z,6.50
2023-04-18T08:52:36.173Z,8.00
2023-04-18T08:57:39.879Z,7.10
2023-04-18T09:02:43.118Z,9.50
2023-04-18T09:07:50.464Z,5.70
2023-04-18T09:12:53.223Z,7.50
2023-04-18T09:17:58.821Z,12.10
2023-04-18T09:23:04.385Z,8.30
2023-04-18T09:28:24.037Z,6.50
2023-04-18T09:33:35.293Z,6.10
2023-04-18T09:38:41.235Z,5.80
2023-04-18T09:43:48.207Z,5.40
2023-04-18T09:48:54.129Z,9.30
2023-04-18T09:53:59.733Z,22.60
2023-04-18T09:59:10.310Z,10.10
2023-04-18T10:04:17.621Z,7.60
2023-04-18T10:09:21.225Z,7.00
2023-04-18T10:14:25.039Z,7.20
2023-04-18T10:19:30.044Z,6.70
2023-04-18T10:24:54.266Z,8.70
2023-04-18T10:29:57.107Z,5.50
2023-04-18T10:35:00.700Z,6.30
2023-04-18T10:40:06.976Z,6.90
2023-04-18T10:45:19.843Z,17.50
2023-04-18T10:50:24.057Z,7.00
2023-04-18T10:55:29.373Z,9.30
2023-04-18T11:00:32.631Z,17.90
2023-04-18T11:05:35.683Z,10.40
2023-04-18T11:10:38.929Z,6.60
2023-04-18T11:15:41.764Z,5.40
2023-04-18T11:20:49.703Z,7.90
2023-04-18T11:25:56.476Z,6.50
2023-04-18T11:31:02.904Z,7.00
2023-04-18T11:36:06.965Z,9.20
2023-04-18T11:41:16.410Z,6.00
2023-04-18T11:46:19.253Z,7.20
2023-04-18T11:51:35.869Z,8.50
2023-04-18T11:56:48.433Z,7.10
2023-04-18T12:02:15.499Z,7.00
2023-04-18T12:07:42.469Z,7.80
2023-04-18T12:12:50.242Z,7.00
2023-04-18T12:17:58.496Z,7.20
2023-04-18T12:23:02.443Z,6.60
2023-04-18T12:28:15.830Z,8.50
2023-04-18T12:33:19.553Z,6.00
2023-04-18T12:38:23.718Z,7.30
2023-04-18T12:43:29.733Z,7.90
2023-04-18T12:48:32.530Z,6.40
2023-04-18T12:53:35.239Z,7.90
2023-04-18T12:58:37.991Z,11.50
2023-04-18T13:03:41.329Z,7.60
2023-04-18T13:08:45.270Z,6.20
2023-04-18T13:13:48.001Z,6.60
2023-04-18T13:18:51.015Z,12.80
2023-04-18T13:23:53.938Z,6.70
2023-04-18T13:28:57.783Z,11.20
2023-04-18T13:34:00.718Z,8.70
2023-04-18T13:39:05.205Z,6.90
2023-04-18T13:44:08.724Z,5.90
2023-04-18T13:49:11.589Z,8.60
2023-04-18T13:54:16.504Z,8.10
2023-04-18T13:59:19.587Z,8.40
2023-04-18T14:04:22.893Z,9.80
2023-04-18T14:09:26.929Z,9.80
2023-04-18T14:14:29.973Z,9.50
2023-04-18T14:19:33.185Z,8.20
2023-04-18T14:24:36.526Z,9.50
2023-04-18T14:29:39.328Z,8.40
2023-04-18T14:34:42.852Z,8.30
2023-04-18T14:39:46.213Z,8.20
2023-04-18T14:44:48.931Z,7.90
2023-04-18T14:49:51.737Z,12.10
2023-04-18T14:54:54.469Z,12.40
2023-04-18T14:59:57.300Z,8.10
2023-04-18T15:05:00.534Z,9.90
2023-04-18T15:10:05.017Z,7.90
2023-04-18T15:15:08.159Z,7.60
2023-04-18T15:20:11.310Z,6.90
2023-04-18T15:25:16.528Z,7.90
2023-04-18T15:30:20.025Z,9.40
2023-04-18T15:35:23.094Z,8.70
2023-04-18T15:40:26.298Z,8.30
2023-04-18T15:45:29.025Z,7.10
2023-04-18T15:50:33.534Z,6.80
2023-04-18T15:55:36.613Z,7.30
2023-04-18T16:00:40.011Z,7.10
2023-04-18T16:05:43.032Z,8.40
2023-04-18T16:10:46.245Z,12.20
2023-04-18T16:15:49.093Z,15.30
2023-04-18T16:20:52.211Z,9.40
2023-04-18T16:25:59.745Z,18.00
2023-04-18T16:31:02.470Z,16.40
2023-04-18T16:36:09.019Z,16.20
2023-04-18T16:41:12.246Z,10.80
2023-04-18T16:46:15.608Z,10.20
2023-04-18T16:51:18.557Z,10.60
2023-04-18T16:56:21.355Z,11.70
2023-04-18T17:01:24.184Z,14.30
2023-04-18T17:06:27.333Z,12.00
2023-04-18T17:11:32.261Z,13.00
2023-04-18T17:16:41.474Z,17.20
2023-04-18T17:21:45.461Z,16.00
2023-04-18T17:26:49.026Z,11.30
2023-04-18T17:31:54.001Z,9.40
2023-04-18T17:36:56.963Z,11.40
2023-04-18T17:42:01.076Z,10.80
2023-04-18T17:47:03.814Z,10.00
2023-04-18T17:52:06.721Z,8.70
2023-04-18T17:57:09.560Z,10.90
2023-04-18T18:02:12.357Z,9.70
2023-04-18T18:07:15.679Z,9.40
2023-04-18T18:12:20.845Z,10.00
2023-04-18T18:17:23.813Z,8.90
2023-04-18T18:22:27.006Z,9.90
2023-04-18T18:27:29.962Z,9.10
2023-04-18T18:32:32.915Z,10.10
2023-04-18T18:37:35.752Z,11.30
2023-04-18T18:42:39.031Z,10.30
2023-04-18T18:47:42.051Z,9.00
2023-04-18T18:52:45.186Z,10.70
2023-04-18T18:57:47.889Z,11.10
2023-04-18T19:02:50.730Z,13.10
2023-04-18T19:07:53.500Z,9.70
2023-04-18T19:12:56.594Z,9.30
2023-04-18T19:18:00.587Z,10.90
2023-04-18T19:23:04.505Z,13.40
2023-04-18T19:28:07.286Z,18.10
2023-04-18T19:33:10.554Z,9.90
2023-04-18T19:38:17.208Z,8.00
2023-04-18T19:43:20.044Z,10.60
2023-04-18T19:48:22.779Z,9.10
2023-04-18T19:53:26.324Z,9.70
2023-04-18T19:58:34.171Z,10.30
2023-04-18T20:03:37.079Z,9.00
2023-04-18T20:08:47.403Z,9.90
2023-04-18T20:13:52.272Z,8.60
2023-04-18T20:18:57.228Z,7.50
2023-04-18T20:24:00.027Z,10.50
2023-04-18T20:29:04.321Z,17.40
2023-04-18T20:34:07.428Z,15.50
2023-04-18T20:39:10.239Z,13.50
2023-04-18T20:44:13.842Z,9.40
2023-04-18T20:49:16.836Z,9.80
2023-04-18T20:54:19.794Z,9.10
2023-04-18T20:59:22.527Z,10.10
2023-04-18T21:04:25.379Z,9.10
2023-04-18T21:09:28.212Z,6.90
2023-04-18T21:14:31.490Z,8.80
2023-04-18T21:19:34.735Z,10.50
2023-04-18T21:24:39.034Z,6.50
2023-04-18T21:29:42.359Z,6.50
2023-04-18T21:34:45.025Z,6.90
2023-04-18T21:40:09.571Z,6.40
2023-04-18T21:45:12.418Z,8.00
2023-04-18T21:50:16.103Z,6.60
2023-04-18T21:55:18.911Z,6.70
2023-04-18T22:00:21.767Z,9.20
2023-04-18T22:05:26.353Z,11.80
2023-04-18T22:10:29.106Z,7.40
2023-04-18T22:15:32.408Z,4.80
2023-04-18T22:20:38.973Z,8.60
2023-04-18T22:25:41.911Z,9.30
2023-04-18T22:30:45.947Z,6.80
2023-04-18T22:35:49.096Z,5.40
2023-04-18T22:40:51.925Z,6.90
2023-04-18T22:45:54.700Z,6.20
2023-04-18T22:50:57.432Z,9.40
2023-04-18T22:56:00.152Z,8.20
2023-04-18T23:01:03.156Z,7.60
2023-04-18T23:06:08.097Z,7.50
2023-04-18T23:11:11.221Z,8.90
2023-04-18T23:16:14.020Z,6.60
2023-04-18T23:21:17.482Z,5.20
2023-04-18T23:26:21.054Z,9.80
2023-04-18T23:31:23.912Z,8.10
2023-04-18T23:36:27.337Z,7.50
2023-04-18T23:41:30.085Z,6.00
2023-04-18T23:46:34.384Z,7.90
2023-04-18T23:51:39.108Z,5.30
2023-04-18T23:56:41.793Z,8.00
